Time;durP1;ratioP1;P1;durP2;ratioP2;P2;SDS_P1;SDS_P2;PMS_P1;PMS_P2;Temp;Humidity;BMP_temperature;BMP_pressure;BME280_temperature;BME280_humidity;BME280_pressure;Samples;Min_cycle;Max_cycle;Signal;HPM_P1;HPM_P2
2022/08/15 00:01:39;;;;;;;1.70;1.50;;;24.30;67.40;;;;;;5036062;28;45577;-71
2022/08/15 00:04:08;;;;;;;1.83;1.42;;;24.30;67.30;;;;;;5037926;27;46613;-70
2022/08/15 00:06:40;;;;;;;2.35;1.80;;;24.30;67.40;;;;;;5040110;28;46393;-71
2022/08/15 00:09:12;;;;;;;2.35;1.73;;;24.30;67.40;;;;;;5038686;27;45423;-70
2022/08/15 00:11:43;;;;;;;2.10;1.70;;;24.30;67.30;;;;;;5038527;28;45432;-70
2022/08/15 00:14:12;;;;;;;2.00;1.50;;;24.30;67.30;;;;;;5038866;28;47600;-70
2022/08/15 00:16:42;;;;;;;2.08;1.73;;;24.30;67.30;;;;;;5038988;28;45474;-70
2022/08/15 00:19:11;;;;;;;1.70;1.52;;;24.30;67.30;;;;;;5033276;28;45546;-70
2022/08/15 00:21:41;;;;;;;1.40;1.30;;;24.30;67.20;;;;;;5037663;28;45386;-70
2022/08/15 00:24:08;;;;;;;1.95;1.38;;;24.30;67.10;;;;;;5037150;27;47053;-71
2022/08/15 00:26:35;;;;;;;1.45;1.35;;;24.30;67.20;;;;;;5036948;28;45345;-70
2022/08/15 00:29:04;;;;;;;1.67;1.50;;;24.30;67.00;;;;;;5037916;28;45493;-70
2022/08/15 00:31:31;;;;;;;1.42;1.23;;;24.30;66.90;;;;;;5034423;28;45486;-70
2022/08/15 00:33:59;;;;;;;2.22;1.60;;;24.30;66.70;;;;;;5039141;27;47506;-70
2022/08/15 00:36:26;;;;;;;1.60;1.33;;;24.30;66.60;;;;;;5054908;27;45413;-70
2022/08/15 00:38:53;;;;;;;1.45;1.33;;;24.30;66.40;;;;;;5090599;27;45562;-70
2022/08/15 00:44:08;;;;;;;2.05;1.10;;;24.30;66.30;;;;;;5035934;27;45779;-70
2022/08/15 00:46:36;;;;;;;1.30;1.20;;;24.30;66.20;;;;;;5040189;27;45306;-71
2022/08/15 00:49:03;;;;;;;1.70;1.20;;;24.30;66.20;;;;;;5040094;27;45337;-70
2022/08/15 00:51:34;;;;;;;1.50;1.20;;;24.30;66.10;;;;;;5069378;27;45353;-71
2022/08/15 00:54:06;;;;;;;1.42;1.23;;;24.30;66.00;;;;;;5026479;27;45330;-71
2022/08/15 00:56:39;;;;;;;1.42;1.25;;;24.30;66.00;;;;;;5067981;27;45505;-70
2022/08/15 00:59:10;;;;;;;1.10;0.93;;;24.30;65.90;;;;;;5021446;28;45479;-70
2022/08/15 01:01:37;;;;;;;1.50;1.10;;;24.30;65.90;;;;;;5054214;27;45332;-70
2022/08/15 01:04:07;;;;;;;1.52;1.42;;;24.30;65.90;;;;;;5051119;27;46597;-70
2022/08/15 01:06:37;;;;;;;1.30;1.05;;;24.30;65.90;;;;;;5066313;27;45360;-70
2022/08/15 01:09:05;;;;;;;1.38;1.13;;;24.30;65.90;;;;;;5024891;27;45210;-70
2022/08/15 01:11:37;;;;;;;1.50;1.20;;;24.30;65.70;;;;;;5031802;28;45549;-70
2022/08/15 01:14:06;;;;;;;2.33;1.20;;;24.30;65.70;;;;;;5038203;28;45502;-70
2022/08/15 01:16:39;;;;;;;1.33;1.10;;;24.30;65.60;;;;;;5034119;28;45341;-70
2022/08/15 01:19:11;;;;;;;1.10;1.00;;;24.30;65.50;;;;;;5018315;28;45489;-70
2022/08/15 01:21:48;;;;;;;1.40;1.20;;;24.30;65.60;;;;;;5017737;28;45240;-70
2022/08/15 01:24:26;;;;;;;1.52;1.30;;;24.30;65.60;;;;;;5029977;27;46769;-70
2022/08/15 01:26:54;;;;;;;1.45;1.20;;;24.30;65.70;;;;;;5040984;28;45424;-70
2022/08/15 01:29:21;;;;;;;1.90;1.13;;;24.30;65.80;;;;;;5040393;27;45486;-70
2022/08/15 01:31:48;;;;;;;1.90;1.27;;;24.30;65.90;;;;;;5040878;28;45190;-70
2022/08/15 01:34:16;;;;;;;2.28;1.55;;;24.30;65.80;;;;;;5040873;27;47178;-70
2022/08/15 01:36:43;;;;;;;1.20;1.10;;;24.30;65.80;;;;;;5040823;28;46175;-70
2022/08/15 01:39:21;;;;;;;1.40;1.30;;;24.30;65.80;;;;;;5064445;27;45346;-70
2022/08/15 01:41:55;;;;;;;1.35;1.10;;;24.30;65.80;;;;;;5096499;27;45219;-71
2022/08/15 01:44:26;;;;;;;2.42;1.20;;;24.30;65.80;;;;;;5054382;27;46293;-71
2022/08/15 01:46:59;;;;;;;1.20;1.10;;;24.30;65.90;;;;;;5052240;27;45457;-71
2022/08/15 01:49:32;;;;;;;1.10;1.00;;;24.30;65.90;;;;;;5045495;27;45267;-71
2022/08/15 01:52:03;;;;;;;1.42;1.20;;;24.30;65.90;;;;;;5047197;27;45262;-70
2022/08/15 01:54:37;;;;;;;2.97;1.20;;;24.30;65.90;;;;;;5026495;28;46565;-70
2022/08/15 01:57:06;;;;;;;1.52;1.20;;;24.30;65.90;;;;;;5071197;27;45384;-70
2022/08/15 01:59:33;;;;;;;1.30;1.10;;;24.30;66.00;;;;;;5032891;28;45240;-71
2022/08/15 02:02:02;;;;;;;1.33;1.15;;;24.30;65.90;;;;;;5070121;27;45262;-70
2022/08/15 02:04:32;;;;;;;1.23;1.08;;;24.30;65.90;;;;;;5064838;27;47306;-70
2022/08/15 02:07:06;;;;;;;1.63;1.02;;;24.30;66.10;;;;;;5028829;27;45261;-70
2022/08/15 02:09:33;;;;;;;1.40;1.20;;;24.30;66.10;;;;;;5029769;28;45556;-70
2022/08/15 02:12:01;;;;;;;1.20;1.10;;;24.30;66.00;;;;;;5073381;27;45624;-70
2022/08/15 02:14:31;;;;;;;2.05;1.10;;;24.30;66.10;;;;;;5025830;27;45561;-71
2022/08/15 02:16:59;;;;;;;1.63;1.10;;;24.30;66.10;;;;;;5040335;28;45558;-70
2022/08/15 02:19:26;;;;;;;1.08;0.98;;;24.30;66.10;;;;;;5040483;28;45388;-71
2022/08/15 02:21:53;;;;;;;1.15;1.05;;;24.30;66.20;;;;;;5040004;28;45423;-70
2022/08/15 02:24:24;;;;;;;2.15;1.08;;;24.30;66.10;;;;;;5033523;28;46648;-70
2022/08/15 02:26:52;;;;;;;1.23;1.02;;;24.30;66.10;;;;;;5019619;27;45707;-70
2022/08/15 02:29:19;;;;;;;1.40;1.20;;;24.30;66.10;;;;;;5057821;27;45500;-71
2022/08/15 02:31:47;;;;;;;2.05;1.00;;;24.30;66.10;;;;;;5030408;27;45314;-70
2022/08/15 02:34:15;;;;;;;1.45;1.05;;;24.30;66.10;;;;;;5034890;28;47562;-71
2022/08/15 02:36:42;;;;;;;1.73;1.08;;;24.30;66.10;;;;;;5073072;27;45405;-71
2022/08/15 02:39:10;;;;;;;1.15;1.00;;;24.30;66.00;;;;;;5037447;27;45364;-70
2022/08/15 02:41:40;;;;;;;1.02;0.93;;;24.30;66.00;;;;;;5023513;27;45347;-70
2022/08/15 02:44:10;;;;;;;1.63;1.05;;;24.30;66.00;;;;;;5025575;27;46444;-71
2022/08/15 02:46:37;;;;;;;1.02;0.90;;;24.30;65.90;;;;;;5026554;28;45378;-70
2022/08/15 02:49:11;;;;;;;1.42;1.10;;;24.30;65.90;;;;;;5026022;27;45471;-70
2022/08/15 02:51:39;;;;;;;1.10;1.00;;;24.30;66.00;;;;;;5031590;28;45267;-70
2022/08/15 02:54:06;;;;;;;2.10;1.20;;;24.30;66.10;;;;;;5061446;27;46252;-70
2022/08/15 02:56:34;;;;;;;1.23;1.13;;;24.30;66.00;;;;;;5028848;27;45551;-70
2022/08/15 02:59:02;;;;;;;1.35;0.88;;;24.30;66.00;;;;;;5032296;27;45411;-71
2022/08/15 03:01:29;;;;;;;0.93;0.90;;;24.30;65.90;;;;;;5034814;27;45527;-69
2022/08/15 03:03:57;;;;;;;1.15;1.00;;;24.30;65.90;;;;;;5038496;28;48475;-70
2022/08/15 03:06:30;;;;;;;1.15;0.95;;;24.30;65.90;;;;;;5030666;28;45344;-70
2022/08/15 03:09:00;;;;;;;1.17;0.90;;;24.30;65.90;;;;;;5049747;27;45351;-70
2022/08/15 03:11:27;;;;;;;1.75;1.00;;;24.30;65.90;;;;;;5049298;27;45572;-70
2022/08/15 03:13:54;;;;;;;1.73;1.00;;;24.30;65.80;;;;;;5049106;27;46597;-70
2022/08/15 03:16:21;;;;;;;1.02;0.77;;;24.30;65.70;;;;;;5027233;28;45468;-70
2022/08/15 03:18:49;;;;;;;1.90;1.10;;;24.30;65.80;;;;;;5035257;28;45359;-70
2022/08/15 03:21:19;;;;;;;1.35;1.00;;;24.30;65.90;;;;;;5034866;28;45571;-70
2022/08/15 03:23:49;;;;;;;1.02;0.93;;;24.30;65.80;;;;;;5032063;28;47769;-70
2022/08/15 03:26:17;;;;;;;2.40;0.93;;;24.30;65.70;;;;;;5038334;27;45332;-70
2022/08/15 03:28:44;;;;;;;1.85;1.02;;;24.30;65.70;;;;;;5031644;28;45660;-71
2022/08/15 03:31:11;;;;;;;0.80;0.80;;;24.30;65.70;;;;;;5065716;27;45417;-71
2022/08/15 03:33:40;;;;;;;0.93;0.90;;;24.30;65.70;;;;;;5032692;28;47104;-70
2022/08/15 03:36:10;;;;;;;1.52;1.15;;;24.30;65.70;;;;;;5037844;28;45413;-70
2022/08/15 03:38:37;;;;;;;0.85;0.80;;;24.30;65.70;;;;;;5021554;27;45351;-70
2022/08/15 03:41:09;;;;;;;0.98;0.93;;;24.30;65.70;;;;;;5033133;28;45354;-70
2022/08/15 03:43:38;;;;;;;0.75;0.73;;;24.30;65.70;;;;;;5032927;28;45276;-70
2022/08/15 03:46:08;;;;;;;0.80;0.80;;;24.30;65.80;;;;;;5039598;28;45953;-70
2022/08/15 03:48:38;;;;;;;1.73;0.90;;;24.30;65.80;;;;;;5030040;28;45387;-70
2022/08/15 03:51:07;;;;;;;0.85;0.82;;;24.30;65.80;;;;;;5073080;27;45527;-70
2022/08/15 03:53:37;;;;;;;1.08;0.98;;;24.30;65.80;;;;;;5032045;27;46515;-71
2022/08/15 03:56:07;;;;;;;0.90;0.90;;;24.30;65.80;;;;;;5045383;27;45412;-72
2022/08/15 03:58:34;;;;;;;0.95;0.88;;;24.30;65.80;;;;;;5047851;27;45370;-71
2022/08/15 04:01:01;;;;;;;1.30;0.93;;;24.30;65.80;;;;;;5063426;27;45586;-70
2022/08/15 04:03:30;;;;;;;1.38;0.90;;;24.30;65.80;;;;;;5021263;28;47379;-70
2022/08/15 04:06:01;;;;;;;0.73;0.70;;;24.30;65.90;;;;;;5035659;27;45431;-70
2022/08/15 04:08:30;;;;;;;1.08;0.98;;;24.30;65.80;;;;;;5037376;28;45195;-70
2022/08/15 04:11:01;;;;;;;1.00;0.90;;;24.30;65.90;;;;;;5036573;27;45435;-70
2022/08/15 04:13:29;;;;;;;1.17;0.93;;;24.30;65.90;;;;;;5036078;27;46163;-70
2022/08/15 04:15:59;;;;;;;0.93;0.90;;;24.30;65.90;;;;;;5033028;28;46007;-70
2022/08/15 04:18:27;;;;;;;1.10;1.00;;;24.30;65.90;;;;;;5037694;28;45439;-70
2022/08/15 04:20:55;;;;;;;1.02;0.93;;;24.30;65.90;;;;;;5037119;27;45287;-71
2022/08/15 04:23:23;;;;;;;0.70;0.70;;;24.30;65.90;;;;;;5038061;28;45549;-70
2022/08/15 04:25:50;;;;;;;2.63;1.05;;;24.30;65.90;;;;;;5038326;28;45325;-70
2022/08/15 04:28:19;;;;;;;0.80;0.80;;;24.20;65.80;;;;;;5037868;28;45471;-70
2022/08/15 04:30:49;;;;;;;0.80;0.80;;;24.30;65.90;;;;;;5039122;28;45297;-70
2022/08/15 04:33:18;;;;;;;1.00;0.90;;;24.30;66.00;;;;;;5036461;28;46558;-71
2022/08/15 04:35:49;;;;;;;1.60;0.93;;;24.30;66.00;;;;;;5036752;28;45463;-70
2022/08/15 04:38:16;;;;;;;0.82;0.80;;;24.30;67.00;;;;;;5040645;28;45193;-71
2022/08/15 04:40:44;;;;;;;1.48;0.90;;;24.20;65.90;;;;;;5040089;28;45526;-70
2022/08/15 04:43:11;;;;;;;1.00;0.90;;;24.30;66.00;;;;;;5040948;28;47890;-70
2022/08/15 04:45:40;;;;;;;0.98;0.90;;;24.30;65.90;;;;;;5041438;28;45319;-70
2022/08/15 04:48:10;;;;;;;0.88;0.80;;;24.30;65.90;;;;;;5040130;27;45536;-70
2022/08/15 04:50:38;;;;;;;1.75;0.90;;;24.30;66.00;;;;;;5049628;28;45523;-71
2022/08/15 04:53:07;;;;;;;1.08;0.90;;;24.30;65.90;;;;;;5047517;28;46558;-70
2022/08/15 04:55:35;;;;;;;0.80;0.80;;;24.30;66.00;;;;;;5040757;28;45377;-70
2022/08/15 04:58:02;;;;;;;1.73;0.98;;;24.30;66.00;;;;;;5035347;28;45294;-70
2022/08/15 05:00:32;;;;;;;1.10;0.90;;;24.30;66.00;;;;;;5040495;28;45240;-70
2022/08/15 05:03:01;;;;;;;0.98;0.82;;;24.30;66.00;;;;;;5041331;28;45251;-70
2022/08/15 05:05:31;;;;;;;1.42;0.82;;;24.30;66.00;;;;;;5045325;28;45383;-70
2022/08/15 05:07:58;;;;;;;1.50;1.10;;;24.30;65.90;;;;;;5036242;27;45579;-71
2022/08/15 05:10:25;;;;;;;2.50;1.20;;;24.30;66.20;;;;;;5038408;27;45513;-72
2022/08/15 05:12:52;;;;;;;1.27;1.13;;;24.30;66.70;;;;;;5040588;27;45360;-70
2022/08/15 05:15:20;;;;;;;2.33;1.15;;;24.40;67.00;;;;;;5033936;27;45734;-70
2022/08/15 05:17:47;;;;;;;1.85;1.17;;;24.40;67.40;;;;;;5038233;28;45309;-70
2022/08/15 05:20:16;;;;;;;1.20;0.80;;;24.40;67.60;;;;;;5075537;27;45447;-71
2022/08/15 05:22:55;;;;;;;1.45;1.10;;;24.40;67.50;;;;;;5035073;27;46492;-70
2022/08/15 05:25:23;;;;;;;1.55;1.15;;;24.40;67.50;;;;;;5039418;27;46318;-70
2022/08/15 05:27:51;;;;;;;2.25;1.00;;;24.40;67.10;;;;;;5028967;28;45405;-71
2022/08/15 05:30:19;;;;;;;1.10;1.00;;;24.40;66.90;;;;;;5044480;27;45618;-71
2022/08/15 05:32:46;;;;;;;1.15;1.02;;;24.40;66.60;;;;;;5030769;28;48335;-70
2022/08/15 05:35:13;;;;;;;1.02;0.90;;;24.40;66.10;;;;;;5045517;27;45497;-70
2022/08/15 05:37:40;;;;;;;1.20;0.90;;;24.40;65.90;;;;;;5035645;27;45396;-70
2022/08/15 05:40:11;;;;;;;1.50;1.15;;;24.40;65.80;;;;;;5042750;28;45376;-70
2022/08/15 05:42:47;;;;;;;1.08;0.98;;;24.40;65.80;;;;;;5043663;28;47542;-70
2022/08/15 05:45:25;;;;;;;1.13;1.02;;;24.40;65.90;;;;;;5036295;27;45359;-70
2022/08/15 05:48:10;;;;;;;3.38;1.00;;;24.30;65.90;;;;;;5069078;27;45337;-70
2022/08/15 05:50:49;;;;;;;1.15;1.00;;;24.30;65.90;;;;;;5054467;27;45376;-70
2022/08/15 05:53:28;;;;;;;1.50;1.13;;;24.30;66.30;;;;;;5048593;27;46606;-69
2022/08/15 05:56:02;;;;;;;1.05;0.90;;;24.30;66.00;;;;;;5051711;27;45580;-70
2022/08/15 05:58:38;;;;;;;1.38;1.05;;;24.30;66.10;;;;;;5074948;27;45340;-71
2022/08/15 06:01:13;;;;;;;1.20;1.05;;;24.30;66.30;;;;;;5033516;27;45419;-70
2022/08/15 06:03:43;;;;;;;1.70;0.90;;;24.30;66.40;;;;;;5034309;28;46587;-71
2022/08/15 06:06:13;;;;;;;1.70;1.10;;;24.40;66.60;;;;;;5038084;28;45509;-71
2022/08/15 06:08:47;;;;;;;1.35;0.93;;;24.40;66.60;;;;;;5038833;28;45462;-71
2022/08/15 06:11:22;;;;;;;1.42;0.95;;;24.40;66.80;;;;;;5037015;28;45348;-70
2022/08/15 06:13:55;;;;;;;2.78;1.00;;;24.40;66.80;;;;;;5037725;28;46310;-70
2022/08/15 06:16:31;;;;;;;1.15;0.75;;;24.40;66.90;;;;;;5037168;27;45559;-70
2022/08/15 06:19:02;;;;;;;1.10;1.00;;;24.40;67.00;;;;;;5038914;27;45500;-71
2022/08/15 06:21:39;;;;;;;3.33;0.95;;;24.40;67.00;;;;;;5036008;27;45316;-70
2022/08/15 06:24:14;;;;;;;1.55;1.10;;;24.30;67.00;;;;;;5037029;28;45448;-71
2022/08/15 06:26:53;;;;;;;1.88;1.20;;;24.30;66.90;;;;;;5036352;28;46087;-70
2022/08/15 06:29:51;;;;;;;1.83;1.00;;;24.40;67.00;;;;;;5034832;28;45498;-70
2022/08/15 06:32:23;;;;;;;2.60;1.10;;;24.30;66.90;;;;;;5035371;27;45353;-70
2022/08/15 06:34:56;;;;;;;4.40;1.10;;;24.30;66.90;;;;;;5038347;28;47590;-70
2022/08/15 06:37:28;;;;;;;0.88;0.88;;;24.30;66.90;;;;;;5037830;27;45411;-70
2022/08/15 06:40:08;;;;;;;1.85;1.10;;;24.30;66.90;;;;;;5035218;27;45534;-70
2022/08/15 06:42:39;;;;;;;1.52;0.90;;;24.40;67.10;;;;;;5036892;27;45745;-70
2022/08/15 06:45:11;;;;;;;1.23;0.95;;;24.40;67.10;;;;;;5041542;27;45422;-69
2022/08/15 06:47:39;;;;;;;1.63;0.93;;;24.40;67.20;;;;;;5037628;27;45411;-70
2022/08/15 06:50:13;;;;;;;1.73;0.90;;;24.30;67.10;;;;;;5034674;28;45360;-70
2022/08/15 06:52:44;;;;;;;1.80;0.98;;;24.40;67.30;;;;;;5031004;28;45414;-70
2022/08/15 06:55:11;;;;;;;1.88;1.00;;;24.40;67.30;;;;;;5035356;28;47103;-69
2022/08/15 06:57:48;;;;;;;1.35;1.20;;;24.40;67.40;;;;;;5036912;28;45471;-70
2022/08/15 07:00:20;;;;;;;2.10;1.10;;;24.40;68.50;;;;;;5033443;28;45524;-71
2022/08/15 07:02:56;;;;;;;2.00;1.05;;;24.40;67.60;;;;;;5036115;28;45273;-71
2022/08/15 07:05:28;;;;;;;1.23;0.90;;;24.40;67.70;;;;;;5038900;28;47126;-70
2022/08/15 07:08:04;;;;;;;3.05;1.40;;;24.40;67.70;;;;;;5037938;27;45270;-70
2022/08/15 07:10:36;;;;;;;2.15;1.00;;;24.40;67.90;;;;;;5039312;27;45568;-70
2022/08/15 07:13:12;;;;;;;1.42;1.13;;;24.40;67.90;;;;;;5039503;28;45303;-71
2022/08/15 07:15:52;;;;;;;3.45;1.40;;;24.40;67.90;;;;;;5038055;27;46733;-70
2022/08/15 07:18:25;;;;;;;2.72;1.13;;;24.40;68.10;;;;;;5043999;27;45449;-70
2022/08/15 07:20:59;;;;;;;2.15;1.10;;;24.40;68.20;;;;;;5037711;28;45365;-71
2022/08/15 07:23:28;;;;;;;1.30;1.20;;;24.40;68.20;;;;;;5031229;27;45438;-70
2022/08/15 07:26:02;;;;;;;1.65;1.17;;;24.40;68.20;;;;;;5037708;27;45257;-71
2022/08/15 07:28:33;;;;;;;1.85;1.02;;;24.40;68.20;;;;;;5035444;28;45427;-70
2022/08/15 07:31:06;;;;;;;2.03;1.00;;;24.40;68.30;;;;;;5037171;28;45546;-70
2022/08/15 07:33:40;;;;;;;1.63;1.00;;;24.30;68.30;;;;;;5050084;27;45407;-70
2022/08/15 07:36:15;;;;;;;3.67;1.30;;;24.40;68.40;;;;;;5040893;27;47684;-70
2022/08/15 07:38:42;;;;;;;1.88;1.08;;;24.30;68.30;;;;;;5027810;28;45713;-69
2022/08/15 07:41:22;;;;;;;1.75;1.15;;;24.40;68.50;;;;;;5034716;28;45295;-70
2022/08/15 07:43:51;;;;;;;1.23;0.98;;;24.30;68.50;;;;;;5060710;27;45522;-70
2022/08/15 07:46:22;;;;;;;1.17;1.00;;;24.30;68.50;;;;;;5033056;27;46605;-70
2022/08/15 07:48:59;;;;;;;1.75;1.05;;;24.40;68.60;;;;;;5023064;27;45384;-70
2022/08/15 07:51:29;;;;;;;1.88;1.20;;;24.40;68.70;;;;;;5072842;27;45430;-70
2022/08/15 07:53:58;;;;;;;2.10;1.30;;;24.40;68.70;;;;;;5036312;28;45300;-70
2022/08/15 07:56:27;;;;;;;1.50;0.98;;;24.40;68.80;;;;;;5054899;27;48041;-70
2022/08/15 07:59:08;;;;;;;2.30;1.10;;;24.30;68.70;;;;;;5053940;27;45445;-70
2022/08/15 08:01:35;;;;;;;1.13;1.00;;;24.40;69.00;;;;;;5029972;28;45258;-70
2022/08/15 08:04:09;;;;;;;1.90;1.08;;;24.40;68.80;;;;;;5062173;27;45586;-69
2022/08/15 08:06:40;;;;;;;1.17;1.08;;;24.40;68.90;;;;;;5041960;28;47003;-70
2022/08/15 08:09:20;;;;;;;1.95;1.10;;;24.40;68.90;;;;;;5064324;27;45495;-70
2022/08/15 08:11:50;;;;;;;1.65;1.00;;;24.40;68.90;;;;;;5057820;27;45276;-70
2022/08/15 08:14:31;;;;;;;1.52;1.10;;;24.40;68.90;;;;;;5071516;27;45551;-70
2022/08/15 08:17:06;;;;;;;1.55;0.93;;;24.40;68.90;;;;;;5032320;28;46631;-71
2022/08/15 08:19:38;;;;;;;2.40;1.40;;;24.40;68.90;;;;;;5024286;28;45272;-70
2022/08/15 08:22:17;;;;;;;1.85;0.93;;;24.40;69.00;;;;;;5034364;27;45398;-70
2022/08/15 08:24:55;;;;;;;3.17;1.20;;;24.40;69.00;;;;;;5095484;27;45557;-71
2022/08/15 08:27:35;;;;;;;1.20;1.00;;;24.40;69.00;;;;;;5072447;27;46400;-70
2022/08/15 08:30:08;;;;;;;1.90;1.20;;;24.40;69.10;;;;;;5035788;27;45357;-70
2022/08/15 08:32:45;;;;;;;1.55;1.10;;;24.40;69.10;;;;;;5025987;28;45376;-70
2022/08/15 08:35:21;;;;;;;2.28;1.13;;;24.40;69.20;;;;;;5041638;28;45222;-70
2022/08/15 08:37:57;;;;;;;1.67;1.27;;;24.40;69.10;;;;;;5031427;28;46589;-70
2022/08/15 08:43:39;;;;;;;2.40;1.00;;;24.40;69.40;;;;;;5036142;28;45253;-69
2022/08/15 08:46:20;;;;;;;1.58;1.00;;;24.30;69.20;;;;;;5033635;27;45215;-70
2022/08/15 08:48:55;;;;;;;0.90;0.82;;;24.40;69.30;;;;;;5035737;28;45514;-69
2022/08/15 08:51:31;;;;;;;1.38;1.08;;;24.40;69.40;;;;;;5030508;28;45331;-70
2022/08/15 08:54:04;;;;;;;1.98;1.05;;;24.40;69.40;;;;;;5078061;27;45419;-70
2022/08/15 08:56:37;;;;;;;2.05;1.10;;;24.30;69.20;;;;;;5050915;27;45515;-70
2022/08/15 08:59:11;;;;;;;1.20;1.00;;;24.40;69.40;;;;;;5054812;27;48210;-70
2022/08/15 09:01:41;;;;;;;1.85;1.00;;;24.30;69.30;;;;;;5063551;27;45265;-70
2022/08/15 09:04:12;;;;;;;1.10;0.98;;;24.30;69.40;;;;;;5072734;27;45469;-70
2022/08/15 09:06:42;;;;;;;1.67;1.20;;;24.30;69.40;;;;;;5056135;27;45350;-70
2022/08/15 09:09:16;;;;;;;1.65;0.98;;;24.30;69.40;;;;;;5052313;27;47424;-69
2022/08/15 09:11:47;;;;;;;1.15;0.80;;;24.40;69.60;;;;;;5055544;27;45264;-70
2022/08/15 09:14:21;;;;;;;1.20;1.10;;;24.30;69.60;;;;;;5047211;27;45383;-70
2022/08/15 09:16:52;;;;;;;1.60;1.38;;;24.40;69.70;;;;;;5066990;27;45526;-70
2022/08/15 09:19:25;;;;;;;1.10;1.00;;;24.40;69.80;;;;;;5076290;27;45362;-70
2022/08/15 09:21:53;;;;;;;2.65;1.50;;;24.30;69.60;;;;;;5031181;28;46009;-71
2022/08/15 09:24:22;;;;;;;1.42;1.08;;;24.40;69.70;;;;;;5040719;28;45375;-70
2022/08/15 09:26:54;;;;;;;1.88;0.90;;;24.30;69.80;;;;;;5074878;27;45415;-70
2022/08/15 09:29:25;;;;;;;2.75;1.30;;;24.40;69.70;;;;;;5041383;27;46092;-69
2022/08/15 09:32:10;;;;;;;1.80;1.23;;;24.30;69.70;;;;;;5033968;28;45444;-69
2022/08/15 09:34:51;;;;;;;1.20;0.95;;;24.40;69.90;;;;;;5032346;28;45428;-70
2022/08/15 09:37:35;;;;;;;2.70;1.00;;;24.30;69.80;;;;;;5075596;27;45385;-71
2022/08/15 09:40:29;;;;;;;1.83;0.82;;;24.40;69.90;;;;;;5074759;27;48032;-70
2022/08/15 09:43:24;;;;;;;1.45;1.08;;;24.40;70.00;;;;;;5066681;27;45501;-70
2022/08/15 09:46:04;;;;;;;1.20;0.93;;;24.40;70.10;;;;;;5023739;28;45315;-69
2022/08/15 09:48:47;;;;;;;1.30;1.10;;;24.30;70.00;;;;;;5032290;28;45360;-70
2022/08/15 09:51:29;;;;;;;1.83;1.02;;;24.30;70.00;;;;;;5072425;27;45284;-70
2022/08/15 09:54:11;;;;;;;2.40;1.35;;;24.30;70.10;;;;;;5075875;27;45292;-70
2022/08/15 09:56:40;;;;;;;1.05;0.98;;;24.30;70.10;;;;;;5029394;27;45446;-69
2022/08/15 09:59:15;;;;;;;1.77;1.05;;;24.30;70.30;;;;;;5035345;27;45434;-70
2022/08/15 10:01:46;;;;;;;1.40;1.02;;;24.30;70.50;;;;;;5028131;28;47346;-70
2022/08/15 10:04:17;;;;;;;1.33;1.08;;;24.30;70.70;;;;;;5027193;28;45354;-70
2022/08/15 10:07:14;;;;;;;1.10;1.00;;;24.30;70.70;;;;;;5040473;28;45265;-70
2022/08/15 10:09:43;;;;;;;1.40;1.02;;;24.30;70.80;;;;;;5028046;28;45379;-70
2022/08/15 10:12:28;;;;;;;1.45;1.23;;;24.30;70.70;;;;;;5028922;27;46401;-71
2022/08/15 10:15:03;;;;;;;2.10;1.20;;;24.30;70.70;;;;;;5039173;28;45410;-71
2022/08/15 10:17:42;;;;;;;2.35;1.23;;;24.30;70.90;;;;;;5034175;28;45439;-70
2022/08/15 10:20:52;;;;;;;1.60;1.00;;;24.40;71.20;;;;;;5036074;28;45428;-71
2022/08/15 10:23:24;;;;;;;1.52;1.20;;;24.30;71.40;;;;;;5038095;27;46586;-69
2022/08/15 10:26:10;;;;;;;1.48;1.35;;;24.30;71.40;;;;;;5037721;27;45392;-70
2022/08/15 10:28:40;;;;;;;1.45;1.20;;;24.30;71.60;;;;;;5037262;27;45456;-70
2022/08/15 10:31:26;;;;;;;1.60;1.10;;;24.30;71.70;;;;;;5038443;28;45654;-70
2022/08/15 10:33:59;;;;;;;2.15;1.23;;;24.30;71.70;;;;;;5033830;28;45422;-70
2022/08/15 10:36:33;;;;;;;1.40;1.20;;;24.30;72.90;;;;;;5037179;28;45970;-70
2022/08/15 10:39:21;;;;;;;1.75;1.20;;;24.30;71.90;;;;;;5037754;28;45544;-70
2022/08/15 10:42:01;;;;;;;1.70;1.30;;;24.40;72.20;;;;;;5034406;27;45324;-70
2022/08/15 10:44:42;;;;;;;2.88;1.05;;;24.30;71.90;;;;;;5034978;27;45554;-70
2022/08/15 10:47:16;;;;;;;2.10;1.23;;;24.30;72.20;;;;;;5033061;28;45425;-70
2022/08/15 10:49:55;;;;;;;1.83;1.27;;;24.30;72.30;;;;;;5034542;28;45333;-70
2022/08/15 10:52:41;;;;;;;2.30;1.40;;;24.30;72.40;;;;;;5028289;28;45462;-70
2022/08/15 10:55:24;;;;;;;0.90;0.90;;;24.30;72.40;;;;;;5037599;28;45468;-72
2022/08/15 10:57:55;;;;;;;2.22;1.08;;;24.30;72.60;;;;;;5032601;27;45473;-70
2022/08/15 11:00:39;;;;;;;1.92;1.27;;;24.30;72.60;;;;;;5034182;28;45554;-70
2022/08/15 11:03:12;;;;;;;2.03;1.42;;;24.30;72.60;;;;;;5036169;27;45436;-71
2022/08/15 11:05:39;;;;;;;3.60;1.48;;;24.30;72.40;;;;;;5028299;28;48420;-70
2022/08/15 11:08:16;;;;;;;1.95;1.17;;;24.30;72.50;;;;;;5073776;27;45291;-70
2022/08/15 11:10:42;;;;;;;1.25;1.15;;;24.30;72.40;;;;;;5034661;27;45434;-70
2022/08/15 11:13:14;;;;;;;1.25;1.15;;;24.30;72.40;;;;;;5034825;27;45693;-70
2022/08/15 11:15:54;;;;;;;1.67;1.05;;;24.30;72.40;;;;;;5060113;27;47306;-70
2022/08/15 11:18:28;;;;;;;1.42;1.20;;;24.30;72.40;;;;;;5031926;27;45387;-70
2022/08/15 11:20:58;;;;;;;1.90;1.20;;;24.30;72.40;;;;;;5034922;28;45454;-70
2022/08/15 11:23:39;;;;;;;2.78;1.15;;;24.30;72.40;;;;;;5051989;27;45244;-70
2022/08/15 11:26:08;;;;;;;1.20;1.10;;;24.30;72.60;;;;;;5049744;27;45484;-70
2022/08/15 11:28:39;;;;;;;2.05;1.20;;;24.30;72.60;;;;;;5038882;28;45851;-71
2022/08/15 11:31:08;;;;;;;1.08;0.98;;;24.30;72.50;;;;;;5037349;28;45314;-70
2022/08/15 11:33:41;;;;;;;2.63;1.42;;;24.30;72.60;;;;;;5037933;28;45321;-70
2022/08/15 11:36:11;;;;;;;2.63;1.40;;;24.30;72.80;;;;;;5028517;27;45303;-70
2022/08/15 11:38:44;;;;;;;1.58;1.10;;;24.40;72.80;;;;;;5031944;28;45579;-70
2022/08/15 11:41:19;;;;;;;1.55;1.20;;;24.30;72.80;;;;;;5029148;28;45271;-70
2022/08/15 11:43:46;;;;;;;1.52;1.00;;;24.30;72.80;;;;;;5030556;28;45333;-70
2022/08/15 11:46:13;;;;;;;1.92;1.35;;;24.40;72.80;;;;;;5050388;27;47982;-70
2022/08/15 11:48:40;;;;;;;1.83;1.35;;;24.30;72.70;;;;;;5034953;27;45458;-71
2022/08/15 11:51:10;;;;;;;1.92;1.35;;;24.40;72.70;;;;;;5032087;27;45246;-70
2022/08/15 11:53:43;;;;;;;1.55;1.25;;;24.40;72.90;;;;;;5045231;27;45328;-70
2022/08/15 11:56:10;;;;;;;1.95;1.33;;;24.40;72.90;;;;;;5031489;28;47411;-70
2022/08/15 11:58:44;;;;;;;1.48;1.38;;;24.30;73.00;;;;;;5037154;27;45566;-70
2022/08/15 12:01:23;;;;;;;1.50;1.30;;;24.30;72.90;;;;;;5030542;27;45257;-70
2022/08/15 12:04:08;;;;;;;1.45;1.25;;;24.30;73.10;;;;;;5055791;27;45454;-70
2022/08/15 12:06:37;;;;;;;1.30;1.20;;;24.30;73.10;;;;;;5040795;27;46359;-70
2022/08/15 12:09:13;;;;;;;1.30;1.15;;;24.30;72.90;;;;;;5038888;28;46427;-70
2022/08/15 12:11:43;;;;;;;1.65;1.13;;;24.30;73.20;;;;;;5038621;27;45386;-70
2022/08/15 12:14:18;;;;;;;1.50;1.30;;;24.30;73.30;;;;;;5041211;27;45289;-70
2022/08/15 12:16:49;;;;;;;1.42;1.02;;;24.30;73.40;;;;;;5058484;27;45658;-70
2022/08/15 12:19:38;;;;;;;1.63;1.10;;;24.30;73.50;;;;;;5038650;27;45408;-70
2022/08/15 12:22:10;;;;;;;2.95;1.20;;;24.30;73.50;;;;;;5037002;27;45525;-70
2022/08/15 12:24:40;;;;;;;1.92;1.30;;;24.30;73.70;;;;;;5029850;27;45387;-71
2022/08/15 12:27:07;;;;;;;1.50;1.13;;;24.30;73.80;;;;;;5029885;27;47388;-70
2022/08/15 12:29:36;;;;;;;1.38;1.20;;;24.30;73.90;;;;;;5034257;27;46114;-70
2022/08/15 12:32:04;;;;;;;1.42;1.20;;;24.30;74.00;;;;;;5028434;27;45423;-71
2022/08/15 12:34:37;;;;;;;1.50;1.40;;;24.30;74.10;;;;;;5065302;27;45339;-70
2022/08/15 12:37:05;;;;;;;2.65;1.00;;;24.30;74.20;;;;;;5070555;27;47372;-70
2022/08/15 12:39:32;;;;;;;1.58;1.20;;;24.30;74.20;;;;;;5036669;27;45634;-70
2022/08/15 12:42:00;;;;;;;1.63;1.40;;;24.30;74.00;;;;;;5031649;28;45451;-70
2022/08/15 12:44:29;;;;;;;1.52;1.23;;;24.30;74.20;;;;;;5037977;27;45260;-70
2022/08/15 12:46:57;;;;;;;2.05;1.15;;;24.30;74.10;;;;;;5043927;27;48355;-70
2022/08/15 12:49:24;;;;;;;1.20;1.00;;;24.30;74.00;;;;;;5025968;28;45747;-70
2022/08/15 12:51:51;;;;;;;1.88;1.42;;;24.30;74.00;;;;;;5042074;28;45547;-70
2022/08/15 12:54:19;;;;;;;1.73;1.35;;;24.30;74.00;;;;;;5048809;27;45492;-71
2022/08/15 12:56:46;;;;;;;1.50;1.33;;;24.30;74.00;;;;;;5033835;28;46571;-70
2022/08/15 12:59:14;;;;;;;1.92;1.40;;;24.30;73.90;;;;;;5040744;28;45461;-70
2022/08/15 13:01:44;;;;;;;1.13;1.05;;;24.30;74.10;;;;;;5038853;27;45446;-70
2022/08/15 13:04:14;;;;;;;1.33;1.13;;;24.30;73.90;;;;;;5038307;28;45309;-71
2022/08/15 13:06:46;;;;;;;1.35;1.25;;;24.30;74.00;;;;;;5034348;27;47873;-71
2022/08/15 13:09:14;;;;;;;1.60;1.40;;;24.30;74.00;;;;;;5036310;28;45735;-70
2022/08/15 13:11:43;;;;;;;2.20;1.38;;;24.30;74.00;;;;;;5045729;27;45970;-71
2022/08/15 13:14:11;;;;;;;2.53;1.27;;;24.40;73.90;;;;;;5041127;28;45268;-70
2022/08/15 13:16:40;;;;;;;1.65;1.38;;;24.30;73.80;;;;;;5046019;27;49219;-70
2022/08/15 13:19:09;;;;;;;2.03;1.40;;;24.30;73.70;;;;;;5041197;28;45456;-71